Time;durP1;ratioP1;P1;durP2;ratioP2;P2;SDS_P1;SDS_P2;PMS_P1;PMS_P2;Temp;Humidity;BMP_temperature;BMP_pressure;BME280_temperature;BME280_humidity;BME280_pressure;Samples;Min_cycle;Max_cycle;Signal;HPM_P1;HPM_P2
2023/07/08 00:01:54;;;;;;;18.25;6.82;;;20.30;95.30;;;;;;5114715;28;20067;-69
2023/07/08 00:04:20;;;;;;;15.65;7.20;;;20.10;97.80;;;;;;5113303;28;20039;-70
2023/07/08 00:06:49;;;;;;;14.02;6.50;;;19.20;93.10;;;;;;5113596;28;20335;-69
2023/07/08 00:09:15;;;;;;;13.45;6.20;;;;;;;;;;5113247;28;20145;-70
2023/07/08 00:11:41;;;;;;;11.98;6.57;;;19.80;97.90;;;;;;5096145;28;20077;-69
2023/07/08 00:14:07;;;;;;;9.95;6.32;;;;;;;;;;5113435;28;20120;-70
2023/07/08 00:16:33;;;;;;;12.98;5.97;;;20.10;95.50;;;;;;5113192;28;20128;-69
2023/07/08 00:18:59;;;;;;;12.88;6.57;;;;;;;;;;5113238;28;20044;-69
2023/07/08 00:21:25;;;;;;;16.58;6.50;;;20.10;98.30;;;;;;5112975;28;20130;-69
2023/07/08 00:23:51;;;;;;;11.65;6.30;;;19.90;98.30;;;;;;5113040;28;20127;-70
2023/07/08 00:26:26;;;;;;;11.43;5.90;;;18.00;97.90;;;;;;5112688;28;20036;-69
2023/07/08 00:28:52;;;;;;;16.42;6.18;;;18.90;93.80;;;;;;5130291;27;20441;-70
2023/07/08 00:31:23;;;;;;;13.48;6.40;;;20.10;98.50;;;;;;5112889;28;20043;-70
2023/07/08 00:33:49;;;;;;;12.98;6.80;;;19.80;98.20;;;;;;5112811;28;20069;-69
2023/07/08 00:36:19;;;;;;;16.25;6.95;;;18.80;94.20;;;;;;5112963;28;20035;-69
2023/07/08 00:38:45;;;;;;;13.48;6.20;;;19.70;98.50;;;;;;5095748;28;20120;-69
2023/07/08 00:41:27;;;;;;;12.05;6.78;;;20.00;98.60;;;;;;5095787;28;20085;-70
2023/07/08 00:43:55;;;;;;;15.13;6.50;;;18.80;94.40;;;;;;5113003;28;20053;-69
2023/07/08 00:46:36;;;;;;;14.60;6.70;;;19.30;98.60;;;;;;5112659;28;20284;-70
2023/07/08 00:49:08;;;;;;;16.10;6.97;;;18.60;93.50;;;;;;5112494;28;20044;-70
2023/07/08 00:51:39;;;;;;;14.82;6.97;;;19.50;98.80;;;;;;5112511;28;20483;-69
2023/07/08 00:54:12;;;;;;;14.63;6.93;;;18.60;94.70;;;;;;5112536;28;20047;-70
2023/07/08 00:57:00;;;;;;;12.45;6.85;;;17.50;95.10;;;;;;5112594;28;20059;-69
2023/07/08 00:59:52;;;;;;;13.20;6.53;;;17.60;98.60;;;;;;5095473;28;20040;-69
2023/07/08 01:02:21;;;;;;;14.98;6.97;;;18.60;94.90;;;;;;5089367;28;20045;-69
2023/07/08 01:05:01;;;;;;;11.13;6.82;;;18.80;94.00;;;;;;5112300;28;20054;-70
2023/07/08 01:07:27;;;;;;;18.83;6.60;;;18.90;94.90;;;;;;5112408;28;20047;-69
2023/07/08 01:10:04;;;;;;;15.77;7.43;;;17.40;98.70;;;;;;5112316;28;20403;-69
2023/07/08 01:12:36;;;;;;;11.07;6.20;;;19.00;98.80;;;;;;5112444;28;20052;-69
2023/07/08 01:15:04;;;;;;;18.73;6.32;;;18.20;99.00;;;;;;5112126;28;20406;-70
2023/07/08 01:17:33;;;;;;;13.95;6.32;;;18.40;99.10;;;;;;5111998;28;20043;-69
2023/07/08 01:20:12;;;;;;;17.60;7.20;;;18.50;95.20;;;;;;5112120;28;20040;-70
2023/07/08 01:22:39;;;;;;;18.25;7.28;;;18.60;95.20;;;;;;5095151;28;20057;-69
2023/07/08 01:25:07;;;;;;;14.60;6.50;;;18.40;99.20;;;;;;5113520;28;20047;-69
2023/07/08 01:27:36;;;;;;;12.73;6.78;;;19.10;99.40;;;;;;5112272;28;20043;-69
2023/07/08 01:30:05;;;;;;;12.93;6.75;;;19.10;98.30;;;;;;5112039;28;20047;-69
2023/07/08 01:32:32;;;;;;;13.70;7.25;;;18.20;99.30;;;;;;5095317;28;20043;-70
2023/07/08 01:35:01;;;;;;;14.05;6.65;;;18.30;99.40;;;;;;5112074;28;20039;-70
2023/07/08 01:37:37;;;;;;;11.82;6.53;;;19.40;97.40;;;;;;5112079;28;20071;-69
2023/07/08 01:40:24;;;;;;;16.05;7.05;;;18.40;94.60;;;;;;5111958;28;20050;-70
2023/07/08 01:42:50;;;;;;;18.25;7.47;;;17.20;99.30;;;;;;5112266;28;20047;-69
2023/07/08 01:45:19;;;;;;;19.23;7.25;;;18.60;99.60;;;;;;5111965;28;20042;-69
2023/07/08 01:47:59;;;;;;;16.27;7.35;;;18.80;97.90;;;;;;5111869;28;20047;-69
2023/07/08 01:50:26;;;;;;;15.98;7.55;;;19.00;99.80;;;;;;5112168;28;20368;-69
2023/07/08 01:52:53;;;;;;;15.45;6.97;;;18.40;99.70;;;;;;5111867;28;20085;-70
2023/07/08 01:55:24;;;;;;;13.30;7.47;;;17.70;99.60;;;;;;5111841;28;20039;-69
2023/07/08 01:57:53;;;;;;;17.90;7.55;;;19.00;97.80;;;;;;5111535;28;20055;-70
2023/07/08 02:00:19;;;;;;;13.10;7.10;;;17.80;99.60;;;;;;5111914;28;20127;-69
2023/07/08 02:02:45;;;;;;;18.02;7.50;;;;;;;;;;5112113;28;20221;-69
2023/07/08 02:05:11;;;;;;;17.55;7.68;;;18.40;99.90;;;;;;5111702;28;20043;-69
2023/07/08 02:07:37;;;;;;;13.15;7.63;;;;;;;;;;5111729;28;20040;-69
2023/07/08 02:10:03;;;;;;;15.38;7.32;;;;;;;;;;5095051;28;20391;-69
2023/07/08 02:12:29;;;;;;;17.67;7.53;;;;;;;;;;5111887;28;20062;-69
2023/07/08 02:14:55;;;;;;;13.57;7.43;;;;;;;;;;5111790;28;20073;-69
2023/07/08 02:17:21;;;;;;;17.42;7.60;;;19.10;99.90;;;;;;5111577;28;20039;-69
2023/07/08 02:19:47;;;;;;;16.08;7.75;;;;;;;;;;5111846;28;20131;-69
2023/07/08 02:22:13;;;;;;;14.48;7.63;;;18.70;96.80;;;;;;5097474;28;20040;-70
2023/07/08 02:24:39;;;;;;;16.23;7.97;;;;;;;;;;5115302;28;20043;-69
2023/07/08 02:27:05;;;;;;;18.60;7.70;;;;;;;;;;5115127;28;20138;-69
2023/07/08 02:29:32;;;;;;;16.35;7.97;;;18.70;99.90;;;;;;5115096;28;20172;-69
2023/07/08 02:31:57;;;;;;;17.70;8.25;;;18.20;99.90;;;;;;5115059;28;20491;-69
2023/07/08 02:34:23;;;;;;;15.68;7.93;;;18.20;99.90;;;;;;5115013;28;20145;-69
2023/07/08 02:36:49;;;;;;;15.50;7.53;;;17.30;99.90;;;;;;5115145;28;20043;-69
2023/07/08 02:39:15;;;;;;;18.13;8.35;;;;;;;;;;5114898;28;20114;-69
2023/07/08 02:41:41;;;;;;;14.00;7.90;;;17.30;99.90;;;;;;5114920;28;20517;-69
2023/07/08 02:44:07;;;;;;;18.55;7.80;;;;;;;;;;5115135;28;20122;-70
2023/07/08 02:46:32;;;;;;;14.43;8.00;;;18.60;99.90;;;;;;5114706;28;20528;-69
2023/07/08 02:48:58;;;;;;;18.77;8.70;;;18.10;97.30;;;;;;5114609;28;20039;-69
2023/07/08 02:51:24;;;;;;;17.77;7.93;;;;;;;;;;5114676;28;20036;-69
2023/07/08 02:53:50;;;;;;;21.50;8.90;;;;;;;;;;5114886;28;20047;-70
2023/07/08 02:56:16;;;;;;;21.25;8.35;;;;;;;;;;5115033;27;20039;-70
2023/07/08 02:58:42;;;;;;;23.08;8.43;;;18.70;98.50;;;;;;5117920;27;20039;-69
2023/07/08 03:01:09;;;;;;;16.25;8.70;;;17.60;97.20;;;;;;5117757;27;20035;-69
2023/07/08 03:03:35;;;;;;;17.48;8.77;;;18.70;99.90;;;;;;5117763;27;20379;-69
2023/07/08 03:06:07;;;;;;;18.05;8.77;;;18.10;99.90;;;;;;5118320;27;20035;-69
2023/07/08 03:08:33;;;;;;;17.00;8.48;;;;;;;;;;5117817;27;20131;-69
2023/07/08 03:11:01;;;;;;;19.83;9.00;;;16.40;97.30;;;;;;5117938;27;20366;-69
2023/07/08 03:13:28;;;;;;;19.35;8.95;;;17.90;99.90;;;;;;5117559;27;20065;-69
2023/07/08 03:15:54;;;;;;;19.92;8.60;;;16.90;99.90;;;;;;5117587;27;20050;-70
2023/07/08 03:18:21;;;;;;;17.48;9.60;;;;;;;;;;5117389;27;20475;-70
2023/07/08 03:20:48;;;;;;;18.52;8.63;;;16.50;99.90;;;;;;5117367;27;20047;-70
2023/07/08 03:23:14;;;;;;;19.00;9.25;;;;;;;;;;5134887;27;20035;-70
2023/07/08 03:25:40;;;;;;;17.33;8.90;;;;;;;;;;5117342;27;20035;-69
2023/07/08 03:28:07;;;;;;;16.42;8.77;;;16.40;99.00;;;;;;5100599;27;20371;-69
2023/07/08 03:30:34;;;;;;;15.68;8.60;;;17.50;99.90;;;;;;5117595;27;20043;-69
2023/07/08 03:33:00;;;;;;;17.23;8.85;;;;;;;;;;5117327;27;20122;-69
2023/07/08 03:35:26;;;;;;;21.85;9.32;;;;;;;;;;5117242;27;20043;-69
2023/07/08 03:37:52;;;;;;;14.85;9.25;;;17.70;99.90;;;;;;5117211;27;20050;-69
2023/07/08 03:40:18;;;;;;;19.27;10.10;;;16.30;99.90;;;;;;5100181;27;20047;-69
2023/07/08 03:42:44;;;;;;;18.42;9.20;;;16.40;99.90;;;;;;5117221;27;20043;-69
2023/07/08 03:45:10;;;;;;;19.58;9.43;;;16.50;99.90;;;;;;5117346;27;20370;-69
2023/07/08 03:47:36;;;;;;;16.58;9.38;;;;;;;;;;5116775;27;20402;-69
2023/07/08 03:50:02;;;;;;;20.23;9.23;;;17.60;97.50;;;;;;5117035;27;20043;-69
2023/07/08 03:52:28;;;;;;;15.98;9.13;;;16.60;99.90;;;;;;5099862;27;20039;-69
2023/07/08 03:54:54;;;;;;;18.60;9.70;;;17.90;99.90;;;;;;5117098;27;20051;-69
2023/07/08 03:57:20;;;;;;;18.67;9.55;;;;;;;;;;5116474;27;20043;-69
2023/07/08 03:59:46;;;;;;;21.98;10.07;;;18.00;99.90;;;;;;5116680;27;20043;-69
2023/07/08 04:02:12;;;;;;;19.27;9.82;;;18.30;99.90;;;;;;5116675;27;20035;-69
2023/07/08 04:04:38;;;;;;;24.15;11.00;;;18.30;99.90;;;;;;5099599;27;20039;-69
2023/07/08 04:07:07;;;;;;;23.35;9.90;;;16.30;99.90;;;;;;5116582;27;20487;-70
2023/07/08 04:09:33;;;;;;;19.55;9.77;;;;;;;;;;5116677;27;20035;-69
2023/07/08 04:11:59;;;;;;;21.00;10.13;;;18.40;99.90;;;;;;5116790;27;20035;-74
2023/07/08 04:14:25;;;;;;;24.60;9.85;;;;;;;;;;5116407;27;20475;-74
2023/07/08 04:16:57;;;;;;;21.80;9.60;;;18.10;99.90;;;;;;5116253;27;20547;-74
2023/07/08 04:19:23;;;;;;;23.40;10.27;;;;;;;;;;5116411;27;20070;-74
2023/07/08 04:21:49;;;;;;;18.40;9.90;;;18.20;99.90;;;;;;5099419;27;20122;-74
2023/07/08 04:24:16;;;;;;;31.30;9.70;;;17.40;98.50;;;;;;5116345;27;20110;-74
2023/07/08 04:26:46;;;;;;;20.85;11.02;;;16.20;99.90;;;;;;5116095;27;20066;-74
2023/07/08 04:29:22;;;;;;;19.20;10.13;;;17.30;98.80;;;;;;5116549;27;20046;-74
2023/07/08 04:31:48;;;;;;;21.25;11.05;;;;;;;;;;5116175;27;20043;-74
2023/07/08 04:34:15;;;;;;;23.27;11.02;;;17.30;98.50;;;;;;5116319;27;20368;-74
2023/07/08 04:36:42;;;;;;;20.08;10.48;;;;;;;;;;5116242;27;20093;-73
2023/07/08 04:39:09;;;;;;;23.40;11.40;;;17.70;99.90;;;;;;5116038;27;20136;-73
2023/07/08 04:41:43;;;;;;;20.00;11.32;;;17.20;97.60;;;;;;5099188;27;20042;-73
2023/07/08 04:44:13;;;;;;;22.27;11.45;;;17.20;99.90;;;;;;5115440;27;20046;-74
2023/07/08 04:46:53;;;;;;;24.42;13.63;;;17.30;98.90;;;;;;5116164;27;20039;-73
2023/07/08 04:49:20;;;;;;;22.17;11.18;;;17.50;98.50;;;;;;5099168;27;20039;-73
2023/07/08 04:51:46;;;;;;;20.10;10.93;;;18.30;99.90;;;;;;5115881;27;20046;-73
2023/07/08 04:54:12;;;;;;;23.00;11.02;;;;;;;;;;5115880;27;20039;-73
2023/07/08 04:56:43;;;;;;;19.95;10.93;;;17.30;98.90;;;;;;5115649;28;20491;-73
2023/07/08 04:59:11;;;;;;;22.27;10.32;;;;;;;;;;5115706;27;20047;-73
2023/07/08 05:01:37;;;;;;;21.80;11.00;;;;;;;;;;5115836;27;20123;-73
2023/07/08 05:04:05;;;;;;;20.70;10.93;;;16.20;98.80;;;;;;5099216;27;20070;-73
2023/07/08 05:06:31;;;;;;;22.83;10.75;;;16.30;99.90;;;;;;5099026;28;20364;-73
2023/07/08 05:08:58;;;;;;;21.63;11.10;;;18.10;99.90;;;;;;5115651;28;20505;-73
2023/07/08 05:11:24;;;;;;;22.70;11.35;;;;;;;;;;5115658;28;20502;-73
2023/07/08 05:13:50;;;;;;;20.75;10.50;;;16.50;98.70;;;;;;5115899;28;20042;-73
2023/07/08 05:16:16;;;;;;;23.30;12.20;;;;;;;;;;5133873;28;20042;-73
2023/07/08 05:18:42;;;;;;;27.63;11.10;;;;;;;;;;5115208;28;20077;-73
2023/07/08 05:21:09;;;;;;;17.75;10.20;;;17.90;99.90;;;;;;5115551;28;20546;-73
2023/07/08 05:23:36;;;;;;;20.23;11.90;;;;;;;;;;5115842;28;20046;-73
2023/07/08 05:26:03;;;;;;;21.13;10.90;;;17.50;98.90;;;;;;5115717;28;20036;-73
2023/07/08 05:28:30;;;;;;;21.98;11.35;;;16.50;99.40;;;;;;5115643;28;20523;-73
2023/07/08 05:30:56;;;;;;;24.55;11.40;;;18.30;99.90;;;;;;5115502;28;20043;-74
2023/07/08 05:33:27;;;;;;;26.77;11.68;;;17.70;99.00;;;;;;5133788;28;20031;-73
2023/07/08 05:35:53;;;;;;;24.73;11.60;;;16.70;99.90;;;;;;5115705;28;20050;-73
2023/07/08 05:38:19;;;;;;;24.13;11.63;;;18.90;99.90;;;;;;5115407;28;20092;-73
2023/07/08 05:40:49;;;;;;;24.95;11.45;;;16.80;99.90;;;;;;5115289;28;20039;-74
2023/07/08 05:43:16;;;;;;;27.55;12.40;;;17.60;99.90;;;;;;5115728;28;20088;-74
2023/07/08 05:45:42;;;;;;;32.42;11.32;;;17.40;99.90;;;;;;5115531;28;20118;-74
2023/07/08 05:48:08;;;;;;;22.63;11.70;;;19.00;99.90;;;;;;5115130;28;20431;-73
2023/07/08 05:50:34;;;;;;;20.80;11.73;;;;;;;;;;5115540;28;20050;-74
2023/07/08 05:53:00;;;;;;;26.17;11.38;;;17.00;99.90;;;;;;5115351;28;20039;-74
2023/07/08 05:55:26;;;;;;;22.88;12.27;;;;;;;;;;5115327;27;20125;-74
2023/07/08 05:57:51;;;;;;;23.48;12.30;;;19.20;99.40;;;;;;5118946;27;20059;-74
2023/07/08 06:00:18;;;;;;;23.48;11.70;;;;;;;;;;5119117;27;20031;-74
2023/07/08 06:02:44;;;;;;;26.77;11.32;;;;;;;;;;5119084;27;20031;-74
2023/07/08 06:05:09;;;;;;;26.85;12.90;;;18.90;99.80;;;;;;5119348;27;20135;-74
2023/07/08 06:07:36;;;;;;;23.40;11.55;;;;;;;;;;5119188;27;20141;-74
2023/07/08 06:10:01;;;;;;;22.45;11.90;;;17.30;99.90;;;;;;5102257;27;20035;-74
2023/07/08 06:12:28;;;;;;;21.75;12.10;;;;;;;;;;5118826;27;20498;-74
2023/07/08 06:14:53;;;;;;;23.60;10.73;;;19.20;99.90;;;;;;5101766;27;20039;-74
2023/07/08 06:17:19;;;;;;;24.88;11.48;;;;;;;;;;5118565;27;20050;-74
2023/07/08 06:19:45;;;;;;;29.88;11.65;;;18.90;99.90;;;;;;5118963;27;20509;-74
2023/07/08 06:22:11;;;;;;;19.95;11.48;;;;;;;;;;5101840;27;20054;-74
2023/07/08 06:24:37;;;;;;;22.52;10.43;;;;;;;;;;5101687;27;20039;-74
2023/07/08 06:27:03;;;;;;;24.08;11.50;;;17.70;99.90;;;;;;5118665;27;20035;-74
2023/07/08 06:29:29;;;;;;;21.40;11.18;;;19.40;99.90;;;;;;5101454;27;20042;-74
2023/07/08 06:31:55;;;;;;;18.83;10.80;;;;;;;;;;5118558;27;20126;-74
2023/07/08 06:34:23;;;;;;;20.63;11.23;;;;;;;;;;5101456;27;20046;-74
2023/07/08 06:36:49;;;;;;;21.05;9.95;;;18.50;97.90;;;;;;5118301;27;20039;-74
2023/07/08 06:39:15;;;;;;;17.63;9.82;;;19.60;99.90;;;;;;5118259;27;20122;-75
2023/07/08 06:41:41;;;;;;;22.98;10.85;;;18.20;99.90;;;;;;5118203;27;20586;-75
2023/07/08 06:44:07;;;;;;;18.88;10.30;;;;;;;;;;5118056;27;20031;-74
2023/07/08 06:46:33;;;;;;;26.20;11.05;;;19.60;98.80;;;;;;5118435;27;20429;-74
2023/07/08 06:48:59;;;;;;;23.30;10.30;;;18.30;99.90;;;;;;5118035;27;20047;-75
2023/07/08 06:51:26;;;;;;;24.85;10.30;;;19.40;99.90;;;;;;5136618;27;20031;-74
2023/07/08 06:53:51;;;;;;;16.02;9.75;;;19.40;99.90;;;;;;5118281;27;20043;-75
2023/07/08 06:56:17;;;;;;;16.50;9.40;;;18.90;99.90;;;;;;5117993;27;20475;-74
2023/07/08 06:58:43;;;;;;;22.75;10.32;;;20.30;99.90;;;;;;5117867;27;20043;-75
2023/07/08 07:01:09;;;;;;;28.35;11.02;;;18.90;99.90;;;;;;5101108;27;20038;-74
2023/07/08 07:03:35;;;;;;;20.17;10.00;;;20.10;99.90;;;;;;5117890;27;20035;-75
2023/07/08 07:06:01;;;;;;;31.92;10.43;;;;;;;;;;5117832;27;20050;-75
2023/07/08 07:08:27;;;;;;;20.25;10.07;;;19.30;99.90;;;;;;5100562;27;20054;-74
2023/07/08 07:10:53;;;;;;;21.50;10.05;;;;;;;;;;5117710;27;20047;-74
2023/07/08 07:13:18;;;;;;;22.90;10.25;;;20.60;99.90;;;;;;5117944;27;20035;-75
2023/07/08 07:15:44;;;;;;;19.65;9.75;;;;;;;;;;5100936;27;20467;-75
2023/07/08 07:18:10;;;;;;;18.27;9.75;;;20.10;99.80;;;;;;5117480;27;20043;-75
2023/07/08 07:20:37;;;;;;;17.08;10.10;;;20.30;99.90;;;;;;5117928;27;20037;-74
2023/07/08 07:23:03;;;;;;;25.67;10.48;;;20.20;95.90;;;;;;5117547;27;20039;-74
2023/07/08 07:25:30;;;;;;;22.27;10.45;;;;;;;;;;5117278;27;20114;-75
2023/07/08 07:27:56;;;;;;;20.13;9.50;;;;;;;;;;5100610;27;20031;-75
2023/07/08 07:30:22;;;;;;;24.77;10.88;;;19.80;99.90;;;;;;5117312;27;20043;-74
2023/07/08 07:32:48;;;;;;;27.73;9.90;;;;;;;;;;5117668;27;20046;-74
2023/07/08 07:35:14;;;;;;;21.67;10.15;;;20.90;99.90;;;;;;5117735;27;20039;-74
2023/07/08 07:37:43;;;;;;;21.80;11.07;;;20.30;99.90;;;;;;5100220;27;20043;-75
2023/07/08 07:40:15;;;;;;;21.90;10.63;;;21.10;96.20;;;;;;5100356;27;20107;-74
2023/07/08 07:42:42;;;;;;;21.23;10.05;;;19.70;98.40;;;;;;5117337;27;20047;-74
2023/07/08 07:45:09;;;;;;;21.90;11.48;;;21.10;98.30;;;;;;5116992;27;20483;-74
2023/07/08 07:47:35;;;;;;;17.13;10.30;;;20.70;95.30;;;;;;5117087;27;20108;-74
2023/07/08 07:50:02;;;;;;;23.65;10.45;;;20.20;99.70;;;;;;5117169;27;20043;-75
2023/07/08 07:52:28;;;;;;;26.67;11.98;;;;;;;;;;5117037;27;20103;-74
2023/07/08 07:54:57;;;;;;;27.30;10.32;;;21.00;96.00;;;;;;5116799;27;20517;-74
2023/07/08 07:57:23;;;;;;;23.77;10.77;;;21.10;95.00;;;;;;5096317;28;20676;-74
2023/07/08 07:59:49;;;;;;;18.17;10.52;;;;;;;;;;5113395;28;20052;-75
2023/07/08 08:02:16;;;;;;;23.70;11.15;;;21.10;95.10;;;;;;5113615;28;20054;-74
2023/07/08 08:04:41;;;;;;;20.33;10.27;;;21.80;99.80;;;;;;5113566;28;20044;-74
2023/07/08 08:07:07;;;;;;;34.58;10.63;;;;;;;;;;5113114;28;20445;-74
2023/07/08 08:09:33;;;;;;;25.23;10.80;;;21.60;98.80;;;;;;5113128;28;20507;-75
2023/07/08 08:12:04;;;;;;;30.02;10.88;;;21.90;99.50;;;;;;5113192;28;20043;-74
2023/07/08 08:14:30;;;;;;;26.27;10.75;;;;;;;;;;5113176;28;20141;-75
2023/07/08 08:16:56;;;;;;;19.20;10.70;;;;;;;;;;5113235;28;20564;-74
2023/07/08 08:19:22;;;;;;;20.92;11.02;;;;;;;;;;5095590;28;20098;-74
2023/07/08 08:21:48;;;;;;;24.50;11.02;;;22.10;96.30;;;;;;5096271;28;20043;-74
2023/07/08 08:24:14;;;;;;;18.23;10.68;;;20.90;98.80;;;;;;5112939;28;20395;-74
2023/07/08 08:26:40;;;;;;;27.80;11.57;;;22.10;98.00;;;;;;5114163;28;20063;-74
2023/07/08 08:29:06;;;;;;;25.45;10.48;;;21.60;95.50;;;;;;5096113;28;20075;-74
2023/07/08 08:31:32;;;;;;;23.65;11.20;;;;;;;;;;5112948;28;20130;-75
2023/07/08 08:33:58;;;;;;;21.63;11.20;;;;;;;;;;5112771;28;20127;-74
2023/07/08 08:36:24;;;;;;;21.15;10.68;;;22.40;98.50;;;;;;5113073;28;20039;-74
2023/07/08 08:38:50;;;;;;;24.80;10.13;;;;;;;;;;5112657;28;20548;-74
2023/07/08 08:41:18;;;;;;;23.48;10.50;;;21.70;98.30;;;;;;5113064;28;20054;-74
2023/07/08 08:43:46;;;;;;;28.35;12.07;;;21.50;98.00;;;;;;5112699;28;20046;-74
2023/07/08 08:46:22;;;;;;;27.80;10.90;;;22.70;98.00;;;;;;5113063;28;20044;-75
2023/07/08 08:49:15;;;;;;;28.45;11.60;;;22.60;92.00;;;;;;5112730;28;20437;-74
2023/07/08 08:51:42;;;;;;;20.80;11.10;;;;;;;;;;5095807;28;20134;-74
2023/07/08 08:54:08;;;;;;;21.30;10.52;;;23.30;97.70;;;;;;5112443;28;20039;-74
2023/07/08 08:57:01;;;;;;;28.52;10.88;;;22.90;94.20;;;;;;5115716;27;20061;-74
2023/07/08 08:59:49;;;;;;;;;;;23.20;92.40;;;;;;5116313;27;20112;-74
2023/07/08 09:02:40;;;;;;;18.90;10.35;;;22.60;97.00;;;;;;5099273;27;19915;-74
2023/07/08 09:05:11;;;;;;;26.88;11.10;;;23.60;96.90;;;;;;5099149;27;20028;-74
2023/07/08 09:08:11;;;;;;;22.00;10.93;;;23.70;92.30;;;;;;5116030;28;20043;-74
2023/07/08 09:10:48;;;;;;;22.40;10.07;;;23.90;96.90;;;;;;5115742;28;20038;-74
2023/07/08 09:13:31;;;;;;;18.13;10.48;;;23.50;91.80;;;;;;5116067;28;20427;-74
2023/07/08 09:16:21;;;;;;;21.80;9.43;;;24.00;96.50;;;;;;5115728;28;20051;-74
2023/07/08 09:19:04;;;;;;;19.75;10.00;;;24.10;96.20;;;;;;5091285;28;20058;-74
2023/07/08 09:21:57;;;;;;;26.80;9.95;;;23.70;90.10;;;;;;5098847;28;20122;-74
2023/07/08 09:24:36;;;;;;;27.58;10.02;;;24.00;90.70;;;;;;5097843;28;20054;-75
2023/07/08 09:27:02;;;;;;;20.85;9.68;;;24.30;95.40;;;;;;5098622;28;20035;-75
2023/07/08 09:29:29;;;;;;;21.35;9.52;;;24.50;90.60;;;;;;5116096;27;20035;-74
2023/07/08 09:31:57;;;;;;;24.05;9.90;;;24.20;90.10;;;;;;5119766;27;20031;-75
2023/07/08 09:34:35;;;;;;;21.35;10.18;;;24.60;94.70;;;;;;5119731;27;20092;-75
2023/07/08 09:37:00;;;;;;;20.83;10.13;;;24.80;91.40;;;;;;5119827;27;20364;-75
2023/07/08 09:39:30;;;;;;;30.52;9.77;;;24.90;88.60;;;;;;5119620;27;20039;-75
2023/07/08 09:41:56;;;;;;;20.95;9.75;;;;;;;;;;5119848;27;20043;-75
2023/07/08 09:44:29;;;;;;;21.48;9.88;;;25.00;88.20;;;;;;5119794;27;20130;-74
2023/07/08 09:46:57;;;;;;;24.25;10.15;;;25.30;93.00;;;;;;5119843;27;20061;-75
2023/07/08 09:49:33;;;;;;;17.73;10.00;;;25.50;94.10;;;;;;5119647;27;20047;-74
2023/07/08 09:52:00;;;;;;;26.80;9.25;;;25.60;93.70;;;;;;5119653;27;20490;-74
2023/07/08 09:54:26;;;;;;;26.65;10.43;;;25.70;93.40;;;;;;5119421;27;20100;-75
2023/07/08 09:57:11;;;;;;;26.00;10.23;;;25.90;89.90;;;;;;5119097;27;20099;-75
2023/07/08 09:59:48;;;;;;;20.55;9.25;;;25.30;92.90;;;;;;5119273;27;20043;-74
2023/07/08 10:02:56;;;;;;;22.48;9.55;;;26.10;93.00;;;;;;5119387;27;20054;-75
2023/07/08 10:05:23;;;;;;;16.75;10.02;;;25.80;85.60;;;;;;5057584;28;20043;-75
2023/07/08 10:07:53;;;;;;;18.15;9.27;;;26.00;92.70;;;;;;5057775;28;20047;-75
2023/07/08 10:10:31;;;;;;;19.13;9.60;;;25.80;92.30;;;;;;5090036;27;20051;-75
2023/07/08 10:13:21;;;;;;;22.98;9.88;;;26.70;92.50;;;;;;5118980;27;20487;-75
2023/07/08 10:15:56;;;;;;;21.00;9.48;;;26.30;81.30;;;;;;5118868;27;20043;-75
2023/07/08 10:18:28;;;;;;;21.45;9.45;;;26.90;87.10;;;;;;5102117;27;20427;-75
2023/07/08 10:21:09;;;;;;;18.20;10.25;;;26.70;91.80;;;;;;5118722;27;20124;-75
2023/07/08 10:24:01;;;;;;;25.63;9.95;;;26.90;82.90;;;;;;5118772;27;20068;-75
2023/07/08 10:26:31;;;;;;;;;;;26.70;81.70;;;;;;5119245;27;20095;-75
2023/07/08 10:29:24;;;;;;;18.42;9.20;;;27.00;80.00;;;;;;5102088;27;19963;-75
2023/07/08 10:32:01;;;;;;;19.98;9.55;;;27.30;87.20;;;;;;5137016;27;20035;-75
2023/07/08 10:34:33;;;;;;;18.73;9.57;;;27.50;90.90;;;;;;5118914;27;20134;-75
2023/07/08 10:37:12;;;;;;;26.40;9.90;;;27.20;90.70;;;;;;5118722;27;20031;-76
2023/07/08 10:40:08;;;;;;;22.48;10.15;;;27.10;80.70;;;;;;5118364;27;20502;-75
2023/07/08 10:43:01;;;;;;;19.95;10.15;;;27.50;77.50;;;;;;5117536;27;20095;-75
2023/07/08 10:45:40;;;;;;;18.98;9.82;;;27.80;77.70;;;;;;5118775;27;20123;-75
2023/07/08 10:48:50;;;;;;;19.05;9.60;;;27.60;89.40;;;;;;5118534;27;20047;-75
2023/07/08 10:51:24;;;;;;;21.13;9.35;;;27.50;88.90;;;;;;5118390;27;20049;-75
2023/07/08 10:54:08;;;;;;;27.92;10.13;;;28.10;88.40;;;;;;5118398;27;20042;-75
2023/07/08 10:56:38;;;;;;;21.73;9.60;;;28.20;77.00;;;;;;5117948;27;20058;-75
2023/07/08 10:59:17;;;;;;;21.05;9.88;;;28.30;87.40;;;;;;5118043;27;20053;-75
2023/07/08 11:02:08;;;;;;;19.95;9.73;;;28.50;83.20;;;;;;5118138;27;20039;-75
2023/07/08 11:04:51;;;;;;;22.35;9.60;;;28.20;86.90;;;;;;5118249;27;20039;-75
2023/07/08 11:07:56;;;;;;;19.48;10.50;;;28.60;86.90;;;;;;5117994;27;20050;-75
2023/07/08 11:10:29;;;;;;;24.73;9.35;;;28.60;86.40;;;;;;5114682;27;20044;-75
2023/07/08 11:13:02;;;;;;;18.05;9.68;;;28.60;75.80;;;;;;5118046;27;20391;-75
2023/07/08 11:16:10;;;;;;;21.05;10.05;;;28.70;86.40;;;;;;5117785;27;20039;-75
2023/07/08 11:18:41;;;;;;;18.13;9.45;;;29.00;72.50;;;;;;5110021;27;20047;-75
2023/07/08 11:21:13;;;;;;;17.15;9.73;;;29.00;85.20;;;;;;5117944;27;20034;-76
2023/07/08 11:23:39;;;;;;;19.85;9.55;;;;;;;;;;5117915;27;20382;-75
2023/07/08 11:26:33;;;;;;;20.17;9.88;;;29.10;71.50;;;;;;5117494;27;20043;-75
2023/07/08 11:29:00;;;;;;;24.27;9.80;;;29.20;81.70;;;;;;5117571;27;20075;-75
2023/07/08 11:31:31;;;;;;;19.77;9.63;;;29.10;73.00;;;;;;5117437;27;20051;-75
2023/07/08 11:33:58;;;;;;;18.35;9.70;;;29.40;84.10;;;;;;5117568;27;20070;-75
2023/07/08 11:36:25;;;;;;;20.52;10.13;;;29.50;84.00;;;;;;5117389;27;20055;-75
2023/07/08 11:38:54;;;;;;;20.98;10.07;;;29.60;83.30;;;;;;5135708;27;20103;-75
2023/07/08 11:41:25;;;;;;;21.95;10.07;;;29.60;83.20;;;;;;5100350;27;20126;-75
2023/07/08 11:43:55;;;;;;;21.73;9.80;;;29.70;83.70;;;;;;5117288;27;20528;-75
2023/07/08 11:46:31;;;;;;;19.08;10.68;;;29.70;71.00;;;;;;5117012;27;20355;-75
2023/07/08 11:49:02;;;;;;;20.10;10.85;;;29.60;83.20;;;;;;5117110;27;20179;-75
2023/07/08 11:51:38;;;;;;;21.52;10.50;;;29.50;69.50;;;;;;5117251;27;20043;-75
2023/07/08 11:54:04;;;;;;;19.30;10.30;;;;;;;;;;5116987;27;20047;-75
2023/07/08 11:56:56;;;;;;;22.75;10.13;;;29.90;71.40;;;;;;5116872;27;20364;-75
2023/07/08 11:59:23;;;;;;;;;;;29.90;70.80;;;;;;5117205;27;20049;-75
2023/07/08 12:02:11;;;;;;;23.95;10.45;;;29.10;70.80;;;;;;5116989;27;19915;-75
2023/07/08 12:04:58;;;;;;;21.65;10.52;;;30.20;70.80;;;;;;5099806;27;20035;-75
2023/07/08 12:07:43;;;;;;;21.23;10.15;;;30.30;81.70;;;;;;5116835;27;20164;-76
2023/07/08 12:10:17;;;;;;;20.60;10.23;;;30.20;81.30;;;;;;5116846;27;20043;-75
2023/07/08 12:12:45;;;;;;;18.42;10.10;;;30.50;81.40;;;;;;5099990;27;20406;-75
2023/07/08 12:15:12;;;;;;;26.30;10.38;;;;;;;;;;5116671;27;20172;-75
2023/07/08 12:17:39;;;;;;;26.13;11.43;;;30.80;80.90;;;;;;5116583;27;20049;-75
2023/07/08 12:20:22;;;;;;;31.35;10.70;;;30.80;79.80;;;;;;5117068;27;20043;-75
2023/07/08 12:22:48;;;;;;;25.02;10.23;;;31.00;79.40;;;;;;5116426;27;20435;-75
2023/07/08 12:25:17;;;;;;;24.70;11.18;;;31.10;79.60;;;;;;5116773;27;20042;-75
2023/07/08 12:27:44;;;;;;;20.42;10.82;;;31.10;67.60;;;;;;5099691;27;20097;-75
2023/07/08 12:30:11;;;;;;;24.48;10.40;;;31.20;67.10;;;;;;5116562;27;20066;-75
2023/07/08 12:32:38;;;;;;;20.75;11.13;;;31.10;78.00;;;;;;5116620;27;20088;-75
2023/07/08 12:35:08;;;;;;;22.98;10.95;;;31.20;78.10;;;;;;5099328;27;20074;-75
2023/07/08 12:37:34;;;;;;;25.30;10.85;;;;;;;;;;5116250;27;20559;-75
2023/07/08 12:40:04;;;;;;;24.05;11.15;;;31.40;67.60;;;;;;5116425;27;20105;-75
2023/07/08 12:42:31;;;;;;;18.20;10.43;;;31.50;76.80;;;;;;5099735;27;20039;-76
2023/07/08 12:44:57;;;;;;;19.88;11.18;;;;;;;;;;5134471;27;20078;-75
2023/07/08 12:47:23;;;;;;;17.35;10.73;;;31.70;66.70;;;;;;5099091;27;20039;-75
2023/07/08 12:49:48;;;;;;;21.85;10.93;;;31.60;76.60;;;;;;5099027;27;20039;-70
2023/07/08 12:52:23;;;;;;;21.67;10.77;;;31.70;76.20;;;;;;5115922;27;20039;-70
2023/07/08 12:54:49;;;;;;;21.73;11.43;;;32.10;76.40;;;;;;5116247;27;20095;-70
2023/07/08 12:57:17;;;;;;;22.15;11.65;;;32.10;64.50;;;;;;5115628;27;20542;-70
2023/07/08 12:59:44;;;;;;;25.10;11.88;;;31.90;75.70;;;;;;5115975;27;20482;-70
2023/07/08 13:02:20;;;;;;;25.92;12.00;;;32.00;75.70;;;;;;5116167;27;20035;-70
2023/07/08 13:04:48;;;;;;;25.10;11.95;;;32.10;63.40;;;;;;5115579;27;20095;-70
2023/07/08 13:07:51;;;;;;;20.20;11.32;;;32.20;75.00;;;;;;5116133;28;20095;-70
2023/07/08 13:10:24;;;;;;;23.65;11.32;;;32.20;74.80;;;;;;5037863;28;20098;-70
2023/07/08 13:12:54;;;;;;;26.52;11.48;;;32.30;74.70;;;;;;5106597;28;20566;-70